weather.gov     
National Weather Service

Terminal Aerodrome Forecast
NWS Homepage
This page is being discontinued on March 12, 2014.
The same data is available at this site. Please update your bookmarks.
Thank you, and we apologize for the inconvenience.
Please send an email to SR-SRH.Webmaster@noaa.gov with any concerns.


Current Version
Previous Version:    01  02  03  04  05  06  07  08  09  10  11  12  13  14  15  16  17  18  19  20  21  22  23  24  25  26  27  28  29  30  
   31  32  33  34  35  36  37  38  39  40  41  42  43  44  45  46  47  48  49  50  51  52  53  54  55  56  57  58  59  60  
[Printable]
391
FTUS43 KLOT 012300
TAFORD
TAF
KORD 012329Z 0200/0306 14008KT P6SM SCT150 BKN250
     FM020500 16007KT P6SM VCSH SCT050 BKN120
     FM020800 16006KT 6SM -SHRA BKN050 OVC120
     FM021100 18009KT P6SM SCT015 BKN030 OVC120
     FM022100 18010G16KT 5SM -SHRA VCTS OVC040CB
      TEMPO 0222/0302 2SM TSRA SCT020 OVC030CB
     FM030400 20012KT 4SM SHRA BR SCT007 BKN012 OVC030=


U.S. Dept. of Commerce
NOAA National Weather Service
1325 East West Highway
Silver Spring, MD 20910
E-mail: w-nws.webmaster@noaa.gov
Page last modified: May 16, 2007
NATIONAL WEATHER SERVICE: for Safety, for Work, for Fun - FOR LIFE